sensor_id;sensor_type;location;lat;lon;timestamp;P1;durP1;ratioP1;P2;durP2;ratioP2
3916;SDS011;1973;50.518;7.318;2023-04-16T00:01:21;27.77;;;18.97;;
3916;SDS011;1973;50.518;7.318;2023-04-16T00:03:47;26.53;;;18.90;;
3916;SDS011;1973;50.518;7.318;2023-04-16T00:06:14;28.30;;;19.53;;
3916;SDS011;1973;50.518;7.318;2023-04-16T00:08:41;26.90;;;19.00;;
3916;SDS011;1973;50.518;7.318;2023-04-16T00:11:08;25.53;;;19.27;;
3916;SDS011;1973;50.518;7.318;2023-04-16T00:13:35;26.93;;;18.40;;
3916;SDS011;1973;50.518;7.318;2023-04-16T00:16:02;28.67;;;19.20;;
3916;SDS011;1973;50.518;7.318;2023-04-16T00:18:28;33.23;;;20.27;;
3916;SDS011;1973;50.518;7.318;2023-04-16T00:20:55;31.97;;;20.17;;
3916;SDS011;1973;50.518;7.318;2023-04-16T00:23:22;26.77;;;18.60;;
3916;SDS011;1973;50.518;7.318;2023-04-16T00:25:50;29.90;;;20.37;;
3916;SDS011;1973;50.518;7.318;2023-04-16T00:28:17;33.17;;;20.70;;
3916;SDS011;1973;50.518;7.318;2023-04-16T00:30:43;32.90;;;20.50;;
3916;SDS011;1973;50.518;7.318;2023-04-16T00:33:10;32.00;;;19.63;;
3916;SDS011;1973;50.518;7.318;2023-04-16T00:35:36;31.57;;;21.30;;
3916;SDS011;1973;50.518;7.318;2023-04-16T00:38:03;33.80;;;22.53;;
3916;SDS011;1973;50.518;7.318;2023-04-16T00:40:29;31.90;;;21.07;;
3916;SDS011;1973;50.518;7.318;2023-04-16T00:42:56;30.53;;;19.57;;
3916;SDS011;1973;50.518;7.318;2023-04-16T00:45:22;40.30;;;23.30;;
3916;SDS011;1973;50.518;7.318;2023-04-16T00:47:48;36.50;;;22.13;;
3916;SDS011;1973;50.518;7.318;2023-04-16T00:50:15;38.07;;;24.03;;
3916;SDS011;1973;50.518;7.318;2023-04-16T00:52:45;32.83;;;22.37;;
3916;SDS011;1973;50.518;7.318;2023-04-16T00:55:12;34.80;;;22.17;;
3916;SDS011;1973;50.518;7.318;2023-04-16T00:57:40;35.20;;;22.77;;
3916;SDS011;1973;50.518;7.318;2023-04-16T01:00:06;35.30;;;21.77;;
3916;SDS011;1973;50.518;7.318;2023-04-16T01:02:33;37.67;;;22.40;;
3916;SDS011;1973;50.518;7.318;2023-04-16T01:05:01;41.33;;;25.73;;
3916;SDS011;1973;50.518;7.318;2023-04-16T01:07:28;38.63;;;24.10;;
3916;SDS011;1973;50.518;7.318;2023-04-16T01:09:54;43.97;;;24.67;;
3916;SDS011;1973;50.518;7.318;2023-04-16T01:12:21;42.47;;;27.00;;
3916;SDS011;1973;50.518;7.318;2023-04-16T01:14:48;43.07;;;25.07;;
3916;SDS011;1973;50.518;7.318;2023-04-16T01:17:15;45.73;;;26.13;;
3916;SDS011;1973;50.518;7.318;2023-04-16T01:19:41;42.30;;;25.50;;
3916;SDS011;1973;50.518;7.318;2023-04-16T01:22:08;46.73;;;27.37;;
3916;SDS011;1973;50.518;7.318;2023-04-16T01:24:34;44.70;;;25.93;;
3916;SDS011;1973;50.518;7.318;2023-04-16T01:27:01;38.57;;;26.17;;
3916;SDS011;1973;50.518;7.318;2023-04-16T01:29:28;41.17;;;25.07;;
3916;SDS011;1973;50.518;7.318;2023-04-16T01:31:54;42.13;;;25.63;;
3916;SDS011;1973;50.518;7.318;2023-04-16T01:34:20;39.00;;;25.50;;
3916;SDS011;1973;50.518;7.318;2023-04-16T01:36:47;42.90;;;24.47;;
3916;SDS011;1973;50.518;7.318;2023-04-16T01:39:13;44.57;;;27.27;;
3916;SDS011;1973;50.518;7.318;2023-04-16T01:41:41;41.40;;;24.73;;
3916;SDS011;1973;50.518;7.318;2023-04-16T01:44:08;37.60;;;24.70;;
3916;SDS011;1973;50.518;7.318;2023-04-16T01:46:35;43.03;;;24.80;;
3916;SDS011;1973;50.518;7.318;2023-04-16T01:49:03;42.30;;;26.23;;
3916;SDS011;1973;50.518;7.318;2023-04-16T01:51:30;39.07;;;26.20;;
3916;SDS011;1973;50.518;7.318;2023-04-16T01:53:57;42.60;;;26.10;;
3916;SDS011;1973;50.518;7.318;2023-04-16T01:56:24;36.67;;;24.10;;
3916;SDS011;1973;50.518;7.318;2023-04-16T01:58:51;39.30;;;25.03;;
3916;SDS011;1973;50.518;7.318;2023-04-16T02:01:18;36.33;;;23.83;;
3916;SDS011;1973;50.518;7.318;2023-04-16T02:03:44;38.63;;;23.90;;
3916;SDS011;1973;50.518;7.318;2023-04-16T02:06:11;39.17;;;23.80;;
3916;SDS011;1973;50.518;7.318;2023-04-16T02:08:38;38.70;;;24.67;;
3916;SDS011;1973;50.518;7.318;2023-04-16T02:11:04;37.03;;;24.27;;
3916;SDS011;1973;50.518;7.318;2023-04-16T02:13:31;37.90;;;22.37;;
3916;SDS011;1973;50.518;7.318;2023-04-16T02:15:57;41.00;;;23.37;;
3916;SDS011;1973;50.518;7.318;2023-04-16T02:18:24;35.90;;;24.67;;
3916;SDS011;1973;50.518;7.318;2023-04-16T02:20:50;38.67;;;24.13;;
3916;SDS011;1973;50.518;7.318;2023-04-16T02:23:16;45.43;;;23.13;;
3916;SDS011;1973;50.518;7.318;2023-04-16T02:25:44;44.60;;;25.53;;
3916;SDS011;1973;50.518;7.318;2023-04-16T02:28:12;39.83;;;24.37;;
3916;SDS011;1973;50.518;7.318;2023-04-16T02:30:40;40.00;;;25.20;;
3916;SDS011;1973;50.518;7.318;2023-04-16T02:33:08;40.20;;;25.00;;
3916;SDS011;1973;50.518;7.318;2023-04-16T02:35:36;42.87;;;24.80;;
3916;SDS011;1973;50.518;7.318;2023-04-16T02:38:03;45.73;;;26.20;;
3916;SDS011;1973;50.518;7.318;2023-04-16T02:40:30;37.17;;;23.80;;
3916;SDS011;1973;50.518;7.318;2023-04-16T02:42:57;39.73;;;25.17;;
3916;SDS011;1973;50.518;7.318;2023-04-16T02:45:24;40.67;;;27.90;;
3916;SDS011;1973;50.518;7.318;2023-04-16T02:47:50;42.33;;;24.47;;
3916;SDS011;1973;50.518;7.318;2023-04-16T02:50:17;40.20;;;26.10;;
3916;SDS011;1973;50.518;7.318;2023-04-16T02:52:43;39.17;;;25.33;;
3916;SDS011;1973;50.518;7.318;2023-04-16T02:55:10;44.20;;;25.17;;
3916;SDS011;1973;50.518;7.318;2023-04-16T02:57:37;43.93;;;24.87;;
3916;SDS011;1973;50.518;7.318;2023-04-16T03:00:03;38.13;;;23.97;;
3916;SDS011;1973;50.518;7.318;2023-04-16T03:02:30;46.33;;;23.70;;
3916;SDS011;1973;50.518;7.318;2023-04-16T03:04:57;39.07;;;22.47;;
3916;SDS011;1973;50.518;7.318;2023-04-16T03:07:23;39.07;;;25.57;;
3916;SDS011;1973;50.518;7.318;2023-04-16T03:09:50;38.90;;;23.87;;
3916;SDS011;1973;50.518;7.318;2023-04-16T03:12:16;40.20;;;23.83;;
3916;SDS011;1973;50.518;7.318;2023-04-16T03:14:43;46.17;;;24.63;;
3916;SDS011;1973;50.518;7.318;2023-04-16T03:17:09;41.13;;;24.67;;
3916;SDS011;1973;50.518;7.318;2023-04-16T03:19:35;39.80;;;23.60;;
3916;SDS011;1973;50.518;7.318;2023-04-16T03:22:02;41.37;;;23.90;;
3916;SDS011;1973;50.518;7.318;2023-04-16T03:24:28;37.50;;;23.40;;
3916;SDS011;1973;50.518;7.318;2023-04-16T03:26:56;42.73;;;23.20;;
3916;SDS011;1973;50.518;7.318;2023-04-16T03:29:23;39.53;;;24.10;;
3916;SDS011;1973;50.518;7.318;2023-04-16T03:31:51;43.70;;;23.30;;
3916;SDS011;1973;50.518;7.318;2023-04-16T03:34:18;40.50;;;23.07;;
3916;SDS011;1973;50.518;7.318;2023-04-16T03:36:44;39.27;;;23.70;;
3916;SDS011;1973;50.518;7.318;2023-04-16T03:39:11;46.03;;;24.40;;
3916;SDS011;1973;50.518;7.318;2023-04-16T03:41:37;35.83;;;22.43;;
3916;SDS011;1973;50.518;7.318;2023-04-16T03:44:04;40.47;;;24.00;;
3916;SDS011;1973;50.518;7.318;2023-04-16T03:46:30;44.10;;;25.70;;
3916;SDS011;1973;50.518;7.318;2023-04-16T03:48:57;37.07;;;22.97;;
3916;SDS011;1973;50.518;7.318;2023-04-16T03:51:23;38.53;;;24.43;;
3916;SDS011;1973;50.518;7.318;2023-04-16T03:53:51;34.53;;;24.07;;
3916;SDS011;1973;50.518;7.318;2023-04-16T03:56:17;38.80;;;22.93;;
3916;SDS011;1973;50.518;7.318;2023-04-16T03:58:44;36.03;;;23.20;;
3916;SDS011;1973;50.518;7.318;2023-04-16T04:01:10;36.67;;;23.30;;
3916;SDS011;1973;50.518;7.318;2023-04-16T04:03:37;37.40;;;23.07;;
3916;SDS011;1973;50.518;7.318;2023-04-16T04:06:07;41.20;;;24.57;;
3916;SDS011;1973;50.518;7.318;2023-04-16T04:08:33;40.77;;;24.60;;
3916;SDS011;1973;50.518;7.318;2023-04-16T04:11:00;43.90;;;24.23;;
3916;SDS011;1973;50.518;7.318;2023-04-16T04:13:26;42.27;;;25.03;;
3916;SDS011;1973;50.518;7.318;2023-04-16T04:15:53;46.53;;;24.30;;
3916;SDS011;1973;50.518;7.318;2023-04-16T04:18:19;52.20;;;27.50;;
3916;SDS011;1973;50.518;7.318;2023-04-16T04:20:46;48.83;;;26.50;;
3916;SDS011;1973;50.518;7.318;2023-04-16T04:23:12;40.47;;;26.60;;
3916;SDS011;1973;50.518;7.318;2023-04-16T04:25:39;43.00;;;26.57;;
3916;SDS011;1973;50.518;7.318;2023-04-16T04:28:05;44.87;;;26.93;;
3916;SDS011;1973;50.518;7.318;2023-04-16T04:30:32;47.33;;;27.40;;
3916;SDS011;1973;50.518;7.318;2023-04-16T04:33:00;37.80;;;23.63;;
3916;SDS011;1973;50.518;7.318;2023-04-16T04:35:27;48.03;;;26.03;;
3916;SDS011;1973;50.518;7.318;2023-04-16T04:37:54;41.73;;;24.17;;
3916;SDS011;1973;50.518;7.318;2023-04-16T04:40:21;43.00;;;25.30;;
3916;SDS011;1973;50.518;7.318;2023-04-16T04:42:47;48.13;;;25.83;;
3916;SDS011;1973;50.518;7.318;2023-04-16T04:45:14;40.23;;;25.47;;
3916;SDS011;1973;50.518;7.318;2023-04-16T04:47:40;47.57;;;25.50;;
3916;SDS011;1973;50.518;7.318;2023-04-16T04:50:07;46.30;;;28.03;;
3916;SDS011;1973;50.518;7.318;2023-04-16T04:52:34;47.67;;;26.10;;
3916;SDS011;1973;50.518;7.318;2023-04-16T04:55:00;46.90;;;26.87;;
3916;SDS011;1973;50.518;7.318;2023-04-16T04:57:27;41.77;;;23.10;;
3916;SDS011;1973;50.518;7.318;2023-04-16T04:59:54;46.37;;;25.93;;
3916;SDS011;1973;50.518;7.318;2023-04-16T05:02:20;45.50;;;25.17;;
3916;SDS011;1973;50.518;7.318;2023-04-16T05:04:47;40.10;;;23.57;;
3916;SDS011;1973;50.518;7.318;2023-04-16T05:07:13;38.43;;;24.10;;
3916;SDS011;1973;50.518;7.318;2023-04-16T05:09:40;45.87;;;22.87;;
3916;SDS011;1973;50.518;7.318;2023-04-16T05:12:06;41.17;;;25.40;;
3916;SDS011;1973;50.518;7.318;2023-04-16T05:14:33;39.77;;;24.07;;
3916;SDS011;1973;50.518;7.318;2023-04-16T05:17:00;40.70;;;22.50;;
3916;SDS011;1973;50.518;7.318;2023-04-16T05:19:26;33.80;;;21.43;;
3916;SDS011;1973;50.518;7.318;2023-04-16T05:21:53;39.57;;;23.40;;
3916;SDS011;1973;50.518;7.318;2023-04-16T05:24:20;40.23;;;25.13;;
3916;SDS011;1973;50.518;7.318;2023-04-16T05:26:47;38.67;;;24.20;;
3916;SDS011;1973;50.518;7.318;2023-04-16T05:29:14;39.73;;;24.00;;
3916;SDS011;1973;50.518;7.318;2023-04-16T05:31:41;39.90;;;24.93;;
3916;SDS011;1973;50.518;7.318;2023-04-16T05:34:07;42.07;;;26.47;;
3916;SDS011;1973;50.518;7.318;2023-04-16T05:36:34;43.47;;;25.40;;
3916;SDS011;1973;50.518;7.318;2023-04-16T05:39:00;41.57;;;25.90;;
3916;SDS011;1973;50.518;7.318;2023-04-16T05:41:27;45.87;;;27.60;;
3916;SDS011;1973;50.518;7.318;2023-04-16T05:43:53;44.07;;;25.77;;
3916;SDS011;1973;50.518;7.318;2023-04-16T05:46:19;43.33;;;25.57;;
3916;SDS011;1973;50.518;7.318;2023-04-16T05:48:46;44.60;;;26.90;;
3916;SDS011;1973;50.518;7.318;2023-04-16T05:51:12;44.53;;;25.93;;
3916;SDS011;1973;50.518;7.318;2023-04-16T05:53:39;46.13;;;26.13;;
3916;SDS011;1973;50.518;7.318;2023-04-16T05:56:06;44.77;;;26.80;;
3916;SDS011;1973;50.518;7.318;2023-04-16T05:58:32;45.70;;;26.53;;
3916;SDS011;1973;50.518;7.318;2023-04-16T06:00:59;41.67;;;26.40;;
3916;SDS011;1973;50.518;7.318;2023-04-16T06:03:26;44.87;;;26.67;;
3916;SDS011;1973;50.518;7.318;2023-04-16T06:05:53;42.07;;;27.77;;
3916;SDS011;1973;50.518;7.318;2023-04-16T06:08:19;41.87;;;25.07;;
3916;SDS011;1973;50.518;7.318;2023-04-16T06:10:46;47.90;;;27.03;;
3916;SDS011;1973;50.518;7.318;2023-04-16T06:13:12;41.10;;;25.47;;
3916;SDS011;1973;50.518;7.318;2023-04-16T06:15:39;47.67;;;26.90;;
3916;SDS011;1973;50.518;7.318;2023-04-16T06:18:06;50.17;;;26.23;;
3916;SDS011;1973;50.518;7.318;2023-04-16T06:20:32;53.47;;;29.50;;
3916;SDS011;1973;50.518;7.318;2023-04-16T06:22:59;50.07;;;28.70;;
3916;SDS011;1973;50.518;7.318;2023-04-16T06:25:25;50.03;;;29.77;;
3916;SDS011;1973;50.518;7.318;2023-04-16T06:27:52;58.83;;;29.03;;
3916;SDS011;1973;50.518;7.318;2023-04-16T06:30:18;46.30;;;26.73;;
3916;SDS011;1973;50.518;7.318;2023-04-16T06:32:45;48.17;;;28.30;;
3916;SDS011;1973;50.518;7.318;2023-04-16T06:35:11;48.80;;;26.00;;
3916;SDS011;1973;50.518;7.318;2023-04-16T06:37:38;46.07;;;28.13;;
3916;SDS011;1973;50.518;7.318;2023-04-16T06:40:04;43.83;;;26.27;;
3916;SDS011;1973;50.518;7.318;2023-04-16T06:42:31;43.40;;;25.50;;
3916;SDS011;1973;50.518;7.318;2023-04-16T06:44:58;50.97;;;25.90;;
3916;SDS011;1973;50.518;7.318;2023-04-16T06:47:24;48.57;;;27.33;;
3916;SDS011;1973;50.518;7.318;2023-04-16T06:49:52;48.23;;;27.07;;
3916;SDS011;1973;50.518;7.318;2023-04-16T06:52:18;49.00;;;25.80;;
3916;SDS011;1973;50.518;7.318;2023-04-16T06:54:45;46.30;;;26.10;;
3916;SDS011;1973;50.518;7.318;2023-04-16T06:57:11;44.57;;;25.33;;
3916;SDS011;1973;50.518;7.318;2023-04-16T06:59:38;45.20;;;27.20;;
3916;SDS011;1973;50.518;7.318;2023-04-16T07:02:04;49.07;;;27.33;;
3916;SDS011;1973;50.518;7.318;2023-04-16T07:04:32;46.53;;;25.37;;
3916;SDS011;1973;50.518;7.318;2023-04-16T07:06:59;40.80;;;25.20;;
3916;SDS011;1973;50.518;7.318;2023-04-16T07:09:26;43.53;;;25.40;;
3916;SDS011;1973;50.518;7.318;2023-04-16T07:11:52;43.60;;;26.00;;
3916;SDS011;1973;50.518;7.318;2023-04-16T07:14:19;43.30;;;25.23;;
3916;SDS011;1973;50.518;7.318;2023-04-16T07:16:46;42.60;;;25.90;;
3916;SDS011;1973;50.518;7.318;2023-04-16T07:19:12;40.93;;;25.50;;
3916;SDS011;1973;50.518;7.318;2023-04-16T07:21:39;42.07;;;26.10;;
3916;SDS011;1973;50.518;7.318;2023-04-16T07:24:07;55.00;;;26.13;;
3916;SDS011;1973;50.518;7.318;2023-04-16T07:26:33;49.20;;;26.00;;
3916;SDS011;1973;50.518;7.318;2023-04-16T07:28:59;45.90;;;27.23;;
3916;SDS011;1973;50.518;7.318;2023-04-16T07:31:26;47.27;;;26.20;;
3916;SDS011;1973;50.518;7.318;2023-04-16T07:33:52;45.67;;;26.60;;
3916;SDS011;1973;50.518;7.318;2023-04-16T07:36:19;45.33;;;26.70;;
3916;SDS011;1973;50.518;7.318;2023-04-16T07:38:46;46.70;;;27.30;;
3916;SDS011;1973;50.518;7.318;2023-04-16T07:41:12;47.57;;;27.10;;
3916;SDS011;1973;50.518;7.318;2023-04-16T07:43:40;46.43;;;25.17;;
3916;SDS011;1973;50.518;7.318;2023-04-16T07:46:07;44.07;;;25.17;;
3916;SDS011;1973;50.518;7.318;2023-04-16T07:48:33;46.27;;;24.67;;
3916;SDS011;1973;50.518;7.318;2023-04-16T07:50:59;43.50;;;23.80;;
3916;SDS011;1973;50.518;7.318;2023-04-16T07:53:26;48.70;;;25.73;;
3916;SDS011;1973;50.518;7.318;2023-04-16T07:55:52;42.07;;;23.73;;
3916;SDS011;1973;50.518;7.318;2023-04-16T07:58:19;40.97;;;23.40;;
3916;SDS011;1973;50.518;7.318;2023-04-16T08:00:45;42.07;;;24.73;;
3916;SDS011;1973;50.518;7.318;2023-04-16T08:03:13;37.37;;;23.83;;
3916;SDS011;1973;50.518;7.318;2023-04-16T08:05:41;40.00;;;23.13;;
3916;SDS011;1973;50.518;7.318;2023-04-16T08:08:07;34.67;;;20.93;;
3916;SDS011;1973;50.518;7.318;2023-04-16T08:10:34;37.77;;;21.67;;
3916;SDS011;1973;50.518;7.318;2023-04-16T08:13:01;35.40;;;21.63;;
3916;SDS011;1973;50.518;7.318;2023-04-16T08:15:27;36.27;;;22.17;;
3916;SDS011;1973;50.518;7.318;2023-04-16T08:17:54;38.53;;;21.47;;
3916;SDS011;1973;50.518;7.318;2023-04-16T08:20:20;33.30;;;20.20;;
3916;SDS011;1973;50.518;7.318;2023-04-16T08:22:47;33.83;;;20.40;;
3916;SDS011;1973;50.518;7.318;2023-04-16T08:25:14;33.63;;;20.30;;
3916;SDS011;1973;50.518;7.318;2023-04-16T08:27:40;32.10;;;20.20;;
3916;SDS011;1973;50.518;7.318;2023-04-16T08:30:07;29.77;;;18.30;;
3916;SDS011;1973;50.518;7.318;2023-04-16T08:32:33;35.43;;;20.30;;
3916;SDS011;1973;50.518;7.318;2023-04-16T08:35:00;35.93;;;23.37;;
3916;SDS011;1973;50.518;7.318;2023-04-16T08:37:27;38.17;;;23.90;;
3916;SDS011;1973;50.518;7.318;2023-04-16T08:39:53;40.10;;;23.77;;
3916;SDS011;1973;50.518;7.318;2023-04-16T08:42:20;34.70;;;24.43;;
3916;SDS011;1973;50.518;7.318;2023-04-16T08:44:52;40.10;;;25.67;;
3916;SDS011;1973;50.518;7.318;2023-04-16T08:47:26;39.47;;;26.27;;
3916;SDS011;1973;50.518;7.318;2023-04-16T08:49:54;46.63;;;26.70;;
3916;SDS011;1973;50.518;7.318;2023-04-16T08:52:23;39.50;;;26.00;;
3916;SDS011;1973;50.518;7.318;2023-04-16T09:00:23;28.83;;;20.10;;
3916;SDS011;1973;50.518;7.318;2023-04-16T09:02:49;31.10;;;20.30;;
3916;SDS011;1973;50.518;7.318;2023-04-16T09:05:17;30.70;;;20.63;;
3916;SDS011;1973;50.518;7.318;2023-04-16T09:07:46;29.60;;;19.37;;
3916;SDS011;1973;50.518;7.318;2023-04-16T09:10:13;27.40;;;18.63;;
3916;SDS011;1973;50.518;7.318;2023-04-16T09:12:41;31.97;;;19.33;;
3916;SDS011;1973;50.518;7.318;2023-04-16T09:15:11;31.83;;;20.27;;
3916;SDS011;1973;50.518;7.318;2023-04-16T09:17:38;26.70;;;18.50;;
3916;SDS011;1973;50.518;7.318;2023-04-16T09:20:06;29.57;;;21.30;;
3916;SDS011;1973;50.518;7.318;2023-04-16T09:22:38;33.37;;;20.57;;
3916;SDS011;1973;50.518;7.318;2023-04-16T09:25:07;30.30;;;20.27;;
3916;SDS011;1973;50.518;7.318;2023-04-16T09:27:35;25.33;;;18.30;;
3916;SDS011;1973;50.518;7.318;2023-04-16T09:30:23;34.60;;;21.83;;
3916;SDS011;1973;50.518;7.318;2023-04-16T09:32:50;37.20;;;22.60;;
3916;SDS011;1973;50.518;7.318;2023-04-16T09:35:18;32.83;;;21.30;;
3916;SDS011;1973;50.518;7.318;2023-04-16T09:37:55;30.73;;;20.80;;
3916;SDS011;1973;50.518;7.318;2023-04-16T09:40:26;37.47;;;21.83;;
3916;SDS011;1973;50.518;7.318;2023-04-16T09:42:56;33.27;;;21.83;;
3916;SDS011;1973;50.518;7.318;2023-04-16T09:45:23;34.03;;;22.70;;
3916;SDS011;1973;50.518;7.318;2023-04-16T09:47:49;38.47;;;24.57;;
3916;SDS011;1973;50.518;7.318;2023-04-16T09:50:17;37.53;;;24.67;;
3916;SDS011;1973;50.518;7.318;2023-04-16T09:52:47;35.30;;;24.40;;
3916;SDS011;1973;50.518;7.318;2023-04-16T09:55:15;37.90;;;24.57;;
3916;SDS011;1973;50.518;7.318;2023-04-16T09:57:47;33.83;;;23.43;;
3916;SDS011;1973;50.518;7.318;2023-04-16T10:00:17;33.37;;;22.30;;
3916;SDS011;1973;50.518;7.318;2023-04-16T10:02:44;35.67;;;25.80;;
3916;SDS011;1973;50.518;7.318;2023-04-16T10:05:13;31.20;;;22.57;;
3916;SDS011;1973;50.518;7.318;2023-04-16T10:07:42;39.17;;;25.70;;
3916;SDS011;1973;50.518;7.318;2023-04-16T10:10:09;38.43;;;26.30;;
3916;SDS011;1973;50.518;7.318;2023-04-16T10:12:36;35.40;;;25.37;;
3916;SDS011;1973;50.518;7.318;2023-04-16T10:15:02;38.87;;;27.90;;
3916;SDS011;1973;50.518;7.318;2023-04-16T10:17:30;46.00;;;30.30;;
3916;SDS011;1973;50.518;7.318;2023-04-16T10:19:56;40.90;;;29.00;;
3916;SDS011;1973;50.518;7.318;2023-04-16T10:22:23;40.90;;;28.27;;
3916;SDS011;1973;50.518;7.318;2023-04-16T10:24:51;37.57;;;27.80;;
3916;SDS011;1973;50.518;7.318;2023-04-16T10:27:18;36.03;;;25.93;;
3916;SDS011;1973;50.518;7.318;2023-04-16T10:29:45;38.13;;;27.97;;
3916;SDS011;1973;50.518;7.318;2023-04-16T10:32:13;35.03;;;27.17;;
3916;SDS011;1973;50.518;7.318;2023-04-16T10:34:42;38.23;;;28.17;;
3916;SDS011;1973;50.518;7.318;2023-04-16T10:37:10;43.97;;;30.90;;
3916;SDS011;1973;50.518;7.318;2023-04-16T10:39:37;38.83;;;27.30;;
3916;SDS011;1973;50.518;7.318;2023-04-16T10:42:07;41.20;;;29.27;;
3916;SDS011;1973;50.518;7.318;2023-04-16T10:44:35;44.97;;;28.93;;
3916;SDS011;1973;50.518;7.318;2023-04-16T10:47:02;43.00;;;29.33;;
3916;SDS011;1973;50.518;7.318;2023-04-16T10:49:36;36.93;;;28.27;;
3916;SDS011;1973;50.518;7.318;2023-04-16T10:52:12;40.17;;;27.23;;
3916;SDS011;1973;50.518;7.318;2023-04-16T10:54:42;39.50;;;28.00;;
3916;SDS011;1973;50.518;7.318;2023-04-16T10:57:11;37.47;;;28.43;;
3916;SDS011;1973;50.518;7.318;2023-04-16T10:59:41;39.80;;;30.20;;
3916;SDS011;1973;50.518;7.318;2023-04-16T11:02:13;41.53;;;30.83;;
3916;SDS011;1973;50.518;7.318;2023-04-16T11:04:41;37.40;;;28.67;;
3916;SDS011;1973;50.518;7.318;2023-04-16T11:12:34;45.20;;;31.47;;
3916;SDS011;1973;50.518;7.318;2023-04-16T11:15:05;42.20;;;30.87;;
3916;SDS011;1973;50.518;7.318;2023-04-16T11:17:39;43.20;;;30.50;;
3916;SDS011;1973;50.518;7.318;2023-04-16T11:20:23;44.37;;;32.07;;
3916;SDS011;1973;50.518;7.318;2023-04-16T11:22:51;47.07;;;31.97;;
3916;SDS011;1973;50.518;7.318;2023-04-16T11:25:20;47.00;;;30.23;;
3916;SDS011;1973;50.518;7.318;2023-04-16T11:27:51;42.90;;;29.97;;
3916;SDS011;1973;50.518;7.318;2023-04-16T11:30:26;44.50;;;31.07;;
3916;SDS011;1973;50.518;7.318;2023-04-16T11:33:06;44.70;;;31.63;;
3916;SDS011;1973;50.518;7.318;2023-04-16T11:35:34;42.53;;;29.83;;
3916;SDS011;1973;50.518;7.318;2023-04-16T11:38:01;42.60;;;30.67;;
3916;SDS011;1973;50.518;7.318;2023-04-16T11:40:30;44.37;;;30.07;;
3916;SDS011;1973;50.518;7.318;2023-04-16T11:43:15;38.20;;;29.40;;
3916;SDS011;1973;50.518;7.318;2023-04-16T11:48:25;40.33;;;29.80;;
3916;SDS011;1973;50.518;7.318;2023-04-16T11:51:12;49.93;;;33.87;;
3916;SDS011;1973;50.518;7.318;2023-04-16T11:53:49;44.00;;;31.80;;
3916;SDS011;1973;50.518;7.318;2023-04-16T11:56:23;42.53;;;31.90;;
3916;SDS011;1973;50.518;7.318;2023-04-16T11:59:07;44.20;;;31.73;;
3916;SDS011;1973;50.518;7.318;2023-04-16T12:01:39;42.97;;;32.43;;
3916;SDS011;1973;50.518;7.318;2023-04-16T12:04:06;40.90;;;30.53;;
3916;SDS011;1973;50.518;7.318;2023-04-16T12:06:34;42.33;;;33.30;;
3916;SDS011;1973;50.518;7.318;2023-04-16T12:09:20;45.53;;;32.80;;
3916;SDS011;1973;50.518;7.318;2023-04-16T12:11:47;42.90;;;31.97;;
3916;SDS011;1973;50.518;7.318;2023-04-16T12:14:14;42.87;;;30.77;;
3916;SDS011;1973;50.518;7.318;2023-04-16T12:16:41;43.53;;;32.77;;
3916;SDS011;1973;50.518;7.318;2023-04-16T12:19:11;43.37;;;31.27;;
3916;SDS011;1973;50.518;7.318;2023-04-16T12:21:39;44.73;;;31.20;;
3916;SDS011;1973;50.518;7.318;2023-04-16T12:24:07;46.73;;;36.00;;
3916;SDS011;1973;50.518;7.318;2023-04-16T12:26:39;46.07;;;35.00;;
3916;SDS011;1973;50.518;7.318;2023-04-16T12:29:20;44.60;;;34.80;;
3916;SDS011;1973;50.518;7.318;2023-04-16T12:31:48;45.30;;;33.20;;
3916;SDS011;1973;50.518;7.318;2023-04-16T12:34:16;47.57;;;36.00;;
3916;SDS011;1973;50.518;7.318;2023-04-16T12:36:44;47.53;;;36.53;;
3916;SDS011;1973;50.518;7.318;2023-04-16T12:39:12;43.07;;;35.03;;
3916;SDS011;1973;50.518;7.318;2023-04-16T12:41:40;48.93;;;35.77;;
3916;SDS011;1973;50.518;7.318;2023-04-16T12:44:09;46.60;;;35.20;;
3916;SDS011;1973;50.518;7.318;2023-04-16T12:46:43;46.53;;;34.73;;
3916;SDS011;1973;50.518;7.318;2023-04-16T12:49:10;46.47;;;35.00;;
3916;SDS011;1973;50.518;7.318;2023-04-16T12:51:37;44.50;;;33.40;;
3916;SDS011;1973;50.518;7.318;2023-04-16T12:54:05;43.17;;;33.00;;
3916;SDS011;1973;50.518;7.318;2023-04-16T12:56:35;41.73;;;32.63;;
3916;SDS011;1973;50.518;7.318;2023-04-16T12:59:01;41.00;;;32.93;;
3916;SDS011;1973;50.518;7.318;2023-04-16T13:01:28;46.53;;;33.90;;
3916;SDS011;1973;50.518;7.318;2023-04-16T13:03:55;46.17;;;33.23;;
3916;SDS011;1973;50.518;7.318;2023-04-16T13:06:21;41.47;;;31.47;;
3916;SDS011;1973;50.518;7.318;2023-04-16T13:08:48;40.33;;;31.07;;
3916;SDS011;1973;50.518;7.318;2023-04-16T13:11:14;36.57;;;31.27;;
3916;SDS011;1973;50.518;7.318;2023-04-16T13:13:41;39.50;;;31.00;;
3916;SDS011;1973;50.518;7.318;2023-04-16T13:16:07;37.60;;;31.00;;
3916;SDS011;1973;50.518;7.318;2023-04-16T13:18:34;38.00;;;29.70;;
3916;SDS011;1973;50.518;7.318;2023-04-16T13:21:02;36.67;;;30.10;;
3916;SDS011;1973;50.518;7.318;2023-04-16T13:23:28;36.50;;;30.40;;
3916;SDS011;1973;50.518;7.318;2023-04-16T13:25:55;35.43;;;29.80;;
3916;SDS011;1973;50.518;7.318;2023-04-16T13:28:22;33.40;;;29.43;;
3916;SDS011;1973;50.518;7.318;2023-04-16T13:30:48;35.50;;;29.20;;
3916;SDS011;1973;50.518;7.318;2023-04-16T13:33:15;38.80;;;29.97;;
3916;SDS011;1973;50.518;7.318;2023-04-16T13:35:42;34.90;;;28.57;;
3916;SDS011;1973;50.518;7.318;2023-04-16T13:38:09;29.70;;;26.47;;
3916;SDS011;1973;50.518;7.318;2023-04-16T13:40:35;34.30;;;29.93;;
3916;SDS011;1973;50.518;7.318;2023-04-16T13:43:02;34.93;;;31.20;;
3916;SDS011;1973;50.518;7.318;2023-04-16T13:45:30;34.50;;;29.53;;
3916;SDS011;1973;50.518;7.318;2023-04-16T13:47:56;37.23;;;29.80;;
3916;SDS011;1973;50.518;7.318;2023-04-16T13:50:23;37.47;;;30.93;;
3916;SDS011;1973;50.518;7.318;2023-04-16T13:52:49;37.00;;;30.47;;
3916;SDS011;1973;50.518;7.318;2023-04-16T13:55:16;42.20;;;30.07;;
3916;SDS011;1973;50.518;7.318;2023-04-16T13:57:45;39.40;;;29.57;;
3916;SDS011;1973;50.518;7.318;2023-04-16T14:00:13;37.57;;;30.67;;
3916;SDS011;1973;50.518;7.318;2023-04-16T14:02:40;37.50;;;30.43;;
3916;SDS011;1973;50.518;7.318;2023-04-16T14:05:08;38.57;;;32.57;;
3916;SDS011;1973;50.518;7.318;2023-04-16T14:07:34;36.47;;;30.27;;
3916;SDS011;1973;50.518;7.318;2023-04-16T14:10:02;31.33;;;27.93;;
3916;SDS011;1973;50.518;7.318;2023-04-16T14:12:29;31.80;;;27.47;;
3916;SDS011;1973;50.518;7.318;2023-04-16T14:14:56;34.47;;;27.93;;
3916;SDS011;1973;50.518;7.318;2023-04-16T14:17:23;30.40;;;27.23;;
3916;SDS011;1973;50.518;7.318;2023-04-16T14:19:49;28.23;;;25.10;;
3916;SDS011;1973;50.518;7.318;2023-04-16T14:22:16;25.50;;;22.70;;
3916;SDS011;1973;50.518;7.318;2023-04-16T14:24:43;26.53;;;23.57;;
3916;SDS011;1973;50.518;7.318;2023-04-16T14:27:09;30.07;;;25.70;;
3916;SDS011;1973;50.518;7.318;2023-04-16T14:29:36;29.33;;;25.90;;
3916;SDS011;1973;50.518;7.318;2023-04-16T14:32:03;29.27;;;26.07;;
3916;SDS011;1973;50.518;7.318;2023-04-16T14:34:29;29.70;;;26.37;;
3916;SDS011;1973;50.518;7.318;2023-04-16T14:36:56;31.57;;;27.07;;
3916;SDS011;1973;50.518;7.318;2023-04-16T14:39:23;30.33;;;27.20;;
3916;SDS011;1973;50.518;7.318;2023-04-16T14:41:50;30.67;;;26.90;;
3916;SDS011;1973;50.518;7.318;2023-04-16T14:44:16;29.97;;;26.73;;
3916;SDS011;1973;50.518;7.318;2023-04-16T14:46:42;27.20;;;22.97;;
3916;SDS011;1973;50.518;7.318;2023-04-16T14:49:09;26.30;;;23.40;;
3916;SDS011;1973;50.518;7.318;2023-04-16T14:51:37;25.90;;;23.20;;
3916;SDS011;1973;50.518;7.318;2023-04-16T14:54:04;27.20;;;24.07;;
3916;SDS011;1973;50.518;7.318;2023-04-16T14:56:30;28.90;;;24.53;;
3916;SDS011;1973;50.518;7.318;2023-04-16T14:58:57;27.50;;;23.60;;
3916;SDS011;1973;50.518;7.318;2023-04-16T15:01:23;25.87;;;23.17;;
3916;SDS011;1973;50.518;7.318;2023-04-16T15:03:50;26.73;;;23.60;;